createdAt,value
2023-01-21T00:02:59.322Z,-1.38
2023-01-21T00:08:02.638Z,-1.52
2023-01-21T00:13:04.659Z,-1.40
2023-01-21T00:18:07.014Z,-1.58
2023-01-21T00:23:10.916Z,-1.65
2023-01-21T00:28:13.545Z,-1.78
2023-01-21T00:33:15.366Z,-1.67
2023-01-21T00:38:17.184Z,-1.77
2023-01-21T00:43:18.968Z,-1.63
2023-01-21T00:48:20.859Z,-1.71
2023-01-21T00:53:23.769Z,-1.73
2023-01-21T00:58:25.581Z,-1.82
2023-01-21T01:03:27.713Z,-1.98
2023-01-21T01:08:29.497Z,-1.86
2023-01-21T01:13:33.074Z,-1.90
2023-01-21T01:18:36.556Z,-2.13
2023-01-21T01:23:41.749Z,-2.19
2023-01-21T01:28:43.728Z,-2.14
2023-01-21T01:33:46.428Z,-2.13
2023-01-21T01:38:48.232Z,-2.11
2023-01-21T01:44:02.153Z,-2.22
2023-01-21T01:49:12.179Z,-2.15
2023-01-21T01:54:20.233Z,-2.13
2023-01-21T01:59:22.398Z,-2.09
2023-01-21T02:04:29.127Z,-2.15
2023-01-21T02:09:31.090Z,-2.23
2023-01-21T02:14:36.499Z,-2.20
2023-01-21T02:19:47.012Z,-2.24
2023-01-21T02:25:19.683Z,-2.27
2023-01-21T02:30:46.448Z,-2.27
2023-01-21T02:36:10.382Z,-2.24
2023-01-21T02:41:30.990Z,-2.22
2023-01-21T02:46:50.988Z,-2.24
2023-01-21T02:51:52.901Z,-2.24
2023-01-21T02:56:54.691Z,-2.34
2023-01-21T03:02:02.501Z,-2.41
2023-01-21T03:07:27.223Z,-2.42
2023-01-21T03:12:50.314Z,-2.44
2023-01-21T03:18:06.302Z,-2.50
2023-01-21T03:23:16.033Z,-2.43
2023-01-21T03:28:23.742Z,-2.45
2023-01-21T03:33:26.619Z,-2.35
2023-01-21T03:38:39.454Z,-2.35
2023-01-21T03:43:41.421Z,-2.43
2023-01-21T03:48:47.043Z,-2.44
2023-01-21T03:53:56.640Z,-2.49
2023-01-21T03:58:58.470Z,-2.44
2023-01-21T04:04:00.296Z,-2.45
2023-01-21T04:09:02.390Z,-2.44
2023-01-21T04:14:04.372Z,-2.36
2023-01-21T04:19:06.238Z,-2.52
2023-01-21T04:24:08.076Z,-2.66
2023-01-21T04:29:09.873Z,-2.73
2023-01-21T04:34:11.905Z,-2.93
2023-01-21T04:39:13.830Z,-3.01
2023-01-21T04:44:15.732Z,-3.04
2023-01-21T04:49:17.563Z,-3.04
2023-01-21T04:54:19.352Z,-3.13
2023-01-21T04:59:21.108Z,-3.10
2023-01-21T05:04:22.941Z,-3.15
2023-01-21T05:09:24.809Z,-3.22
2023-01-21T05:14:26.606Z,-3.34
2023-01-21T05:19:28.473Z,-3.44
2023-01-21T05:24:30.993Z,-3.37
2023-01-21T05:29:32.780Z,-3.45
2023-01-21T05:34:34.613Z,-3.46
2023-01-21T05:39:36.426Z,-3.51
2023-01-21T05:44:38.230Z,-3.53
2023-01-21T05:49:40.105Z,-3.50
2023-01-21T05:54:52.500Z,-3.46
2023-01-21T06:00:02.071Z,-3.40
2023-01-21T06:05:07.102Z,-3.50
2023-01-21T06:10:09.399Z,-3.46
2023-01-21T06:15:11.597Z,-3.57
2023-01-21T06:20:13.740Z,-3.64
2023-01-21T06:25:15.631Z,-3.67
2023-01-21T06:30:17.780Z,-3.63
2023-01-21T06:35:19.975Z,-3.53
2023-01-21T06:40:21.831Z,-3.60
2023-01-21T06:45:23.723Z,-3.63
2023-01-21T06:50:25.547Z,-3.70
2023-01-21T06:55:27.349Z,-3.69
2023-01-21T07:00:29.266Z,-3.65
2023-01-21T07:05:31.049Z,-3.59
2023-01-21T07:10:32.941Z,-3.51
2023-01-21T07:15:34.799Z,-3.45
2023-01-21T07:20:37.963Z,-3.39
2023-01-21T07:25:41.134Z,-3.37
2023-01-21T07:30:43.099Z,-3.31
2023-01-21T07:35:44.932Z,-3.33
2023-01-21T07:40:50.559Z,-3.28
2023-01-21T07:45:52.477Z,-3.29
2023-01-21T07:50:58.590Z,-3.31
2023-01-21T07:56:05.103Z,-3.16
2023-01-21T08:01:08.617Z,-3.20
2023-01-21T08:06:10.450Z,-3.05
2023-01-21T08:11:12.236Z,-2.98
2023-01-21T08:16:14.122Z,-2.94
2023-01-21T08:21:15.994Z,-2.82
2023-01-21T08:26:17.859Z,-2.85
2023-01-21T08:31:19.719Z,-2.91
2023-01-21T08:36:21.594Z,-2.78
2023-01-21T08:41:23.450Z,-2.79
2023-01-21T08:46:25.330Z,-2.72
2023-01-21T08:51:27.351Z,-2.72
2023-01-21T08:56:29.179Z,-2.53
2023-01-21T09:01:30.995Z,-2.54
2023-01-21T09:06:33.760Z,-2.50
2023-01-21T09:11:35.587Z,-2.57
2023-01-21T09:16:37.834Z,-2.60
2023-01-21T09:21:39.958Z,-2.45
2023-01-21T09:26:44.925Z,-2.28
2023-01-21T09:31:46.845Z,-2.25
2023-01-21T09:36:48.717Z,-2.47
2023-01-21T09:41:50.522Z,-2.30
2023-01-21T09:47:23.673Z,-2.31
2023-01-21T09:52:41.381Z,-2.41
2023-01-21T09:57:56.350Z,-2.28
2023-01-21T10:03:28.549Z,-2.26
2023-01-21T10:08:35.809Z,-2.19
2023-01-21T10:13:49.830Z,-2.25
2023-01-21T10:18:54.645Z,-2.25
2023-01-21T10:24:02.922Z,-2.14
2023-01-21T10:29:05.384Z,-1.96
2023-01-21T10:34:14.971Z,-1.81
2023-01-21T10:39:38.697Z,-1.85
2023-01-21T10:45:05.850Z,-1.88
2023-01-21T10:50:34.655Z,-1.71
2023-01-21T10:56:06.531Z,-1.85
2023-01-21T11:01:18.227Z,-1.73
2023-01-21T11:06:24.053Z,-1.93
2023-01-21T11:11:35.657Z,-1.95
2023-01-21T11:16:49.051Z,-1.67
2023-01-21T11:22:04.474Z,-1.48
2023-01-21T11:27:06.310Z,-1.57
2023-01-21T11:32:21.540Z,-1.73
2023-01-21T11:37:26.372Z,-1.78
2023-01-21T11:42:28.189Z,-1.70
2023-01-21T11:47:46.986Z,-1.70
2023-01-21T11:53:13.012Z,-1.66
2023-01-21T11:58:26.056Z,-1.54
2023-01-21T12:03:35.103Z,-1.17
2023-01-21T12:08:40.148Z,-1.43
2023-01-21T12:13:47.768Z,-1.36
2023-01-21T12:19:11.224Z,-1.22
2023-01-21T12:24:28.265Z,-1.31
2023-01-21T12:30:00.381Z,-1.37
2023-01-21T12:35:10.926Z,-1.53
2023-01-21T12:40:37.043Z,-1.48
2023-01-21T12:45:46.212Z,-1.33
2023-01-21T12:50:58.829Z,-1.39
2023-01-21T12:56:03.897Z,-1.53
2023-01-21T13:01:35.925Z,-1.53
2023-01-21T13:06:53.653Z,-1.39
2023-01-21T13:12:02.881Z,-1.33
2023-01-21T13:17:16.963Z,-1.20
2023-01-21T13:22:21.770Z,-1.30
2023-01-21T13:27:39.015Z,-1.10
2023-01-21T13:33:17.357Z,-1.08
2023-01-21T13:38:27.534Z,-1.17
2023-01-21T13:43:55.228Z,-0.94
2023-01-21T13:49:20.929Z,-0.92
2023-01-21T13:54:55.063Z,-1.12
2023-01-21T13:59:59.759Z,-1.17
2023-01-21T14:05:26.829Z,-1.09
2023-01-21T14:10:36.758Z,-0.82
2023-01-21T14:15:50.547Z,-1.06
2023-01-21T14:20:58.440Z,-1.11
2023-01-21T14:26:38.530Z,-0.93
2023-01-21T14:31:44.721Z,-0.80
2023-01-21T14:37:02.455Z,-0.76
2023-01-21T14:42:17.476Z,-0.63
2023-01-21T14:47:40.589Z,-0.69
2023-01-21T14:52:45.157Z,-0.81
2023-01-21T14:57:51.462Z,-0.95
2023-01-21T15:03:15.492Z,-0.96
2023-01-21T15:08:45.539Z,-1.06
2023-01-21T15:14:15.610Z,-1.04
2023-01-21T15:19:30.300Z,-1.10
2023-01-21T15:24:35.191Z,-1.19
2023-01-21T15:29:39.255Z,-1.23
2023-01-21T15:34:42.365Z,-1.16
2023-01-21T15:39:44.189Z,-1.25
2023-01-21T15:45:05.301Z,-1.22
2023-01-21T15:50:36.289Z,-1.20
2023-01-21T15:55:47.261Z,-1.27
2023-01-21T16:01:04.188Z,-1.21
2023-01-21T16:06:15.148Z,-1.23
2023-01-21T16:11:26.119Z,-1.28
2023-01-21T16:16:55.803Z,-1.20
2023-01-21T16:22:01.387Z,-1.27
2023-01-21T16:27:21.007Z,-1.28
2023-01-21T16:32:22.979Z,-1.35
2023-01-21T16:37:26.928Z,-1.31
2023-01-21T16:42:40.926Z,-1.29
2023-01-21T16:47:43.578Z,-1.23
2023-01-21T16:52:46.183Z,-1.15
2023-01-21T16:57:53.417Z,-1.14
2023-01-21T17:02:56.525Z,-1.17
2023-01-21T17:08:03.116Z,-1.28
2023-01-21T17:13:07.456Z,-1.28
2023-01-21T17:18:24.392Z,-1.19
2023-01-21T17:23:31.335Z,-1.11
2023-01-21T17:28:39.070Z,-1.18
2023-01-21T17:33:42.634Z,-1.15
2023-01-21T17:38:47.174Z,-1.14
2023-01-21T17:43:51.080Z,-1.23
2023-01-21T17:48:57.924Z,-1.22
2023-01-21T17:54:07.281Z,-1.22
2023-01-21T17:59:41.558Z,-1.18
2023-01-21T18:04:44.160Z,-1.15
2023-01-21T18:09:46.046Z,-1.21
2023-01-21T18:14:48.116Z,-1.23
2023-01-21T18:19:50.154Z,-1.20
2023-01-21T18:24:52.011Z,-1.21
2023-01-21T18:29:54.599Z,-1.19
2023-01-21T18:34:56.537Z,-1.21
2023-01-21T18:39:58.378Z,-1.22
2023-01-21T18:45:00.316Z,-1.16
2023-01-21T18:50:03.773Z,-1.16
2023-01-21T18:55:07.265Z,-1.23
2023-01-21T19:00:30.006Z,-1.20
2023-01-21T19:05:38.251Z,-1.24
2023-01-21T19:10:40.137Z,-1.25
2023-01-21T19:15:42.096Z,-1.23
2023-01-21T19:20:44.467Z,-1.28
2023-01-21T19:26:04.879Z,-1.25
2023-01-21T19:31:06.781Z,-1.24
2023-01-21T19:36:16.426Z,-1.19
2023-01-21T19:41:18.280Z,-1.22
2023-01-21T19:46:23.151Z,-1.19
2023-01-21T19:51:25.103Z,-1.21
2023-01-21T19:56:27.033Z,-1.15
2023-01-21T20:01:29.480Z,-1.18
2023-01-21T20:06:40.479Z,-1.18
2023-01-21T20:11:42.281Z,-1.10
2023-01-21T20:16:48.582Z,-1.14
2023-01-21T20:22:01.378Z,-1.16
2023-01-21T20:27:06.717Z,-1.16
2023-01-21T20:32:11.131Z,-1.15
2023-01-21T20:37:14.287Z,-1.19
2023-01-21T20:42:16.080Z,-1.08
2023-01-21T20:47:27.575Z,-1.07
2023-01-21T20:52:40.040Z,-1.12
2023-01-21T20:57:42.077Z,-1.10
2023-01-21T21:02:44.313Z,-1.15
2023-01-21T21:07:46.192Z,-1.20
2023-01-21T21:12:49.125Z,-1.17
2023-01-21T21:17:50.912Z,-1.19
2023-01-21T21:22:52.859Z,-1.24
2023-01-21T21:27:55.678Z,-1.24
2023-01-21T21:32:58.971Z,-1.22
2023-01-21T21:38:10.110Z,-1.16
2023-01-21T21:43:35.418Z,-1.14
2023-01-21T21:48:41.311Z,-1.12
2023-01-21T21:53:43.587Z,-1.18
2023-01-21T21:58:45.764Z,-1.20
2023-01-21T22:03:47.907Z,-1.22
2023-01-21T22:08:49.806Z,-1.22
2023-01-21T22:13:52.907Z,-1.17
2023-01-21T22:18:58.428Z,-1.20
2023-01-21T22:24:02.577Z,-1.10
2023-01-21T22:29:05.664Z,-1.13
2023-01-21T22:34:07.599Z,-1.09
2023-01-21T22:39:10.266Z,-1.14
2023-01-21T22:44:12.114Z,-1.12
2023-01-21T22:49:14.255Z,-1.12
2023-01-21T22:54:16.099Z,-1.06
2023-01-21T22:59:17.952Z,-1.19
2023-01-21T23:04:19.833Z,-1.22
2023-01-21T23:09:21.930Z,-1.24
2023-01-21T23:14:23.746Z,-1.19
2023-01-21T23:19:26.631Z,-1.22
2023-01-21T23:24:28.475Z,-1.24
2023-01-21T23:29:30.252Z,-1.25
2023-01-21T23:34:32.051Z,-1.14
2023-01-21T23:39:33.846Z,-1.20
2023-01-21T23:44:35.811Z,-1.26
2023-01-21T23:49:37.614Z,-1.27
2023-01-21T23:54:40.135Z,-1.24
2023-01-21T23:59:41.997Z,-1.24
